Time;durP1;ratioP1;P1;durP2;ratioP2;P2;SDS_P1;SDS_P2;PMS_P1;PMS_P2;Temp;Humidity;BMP_temperature;BMP_pressure;BME280_temperature;BME280_humidity;BME280_pressure;Samples;Min_cycle;Max_cycle;Signal;HPM_P1;HPM_P2
2020/12/05 00:01:31;;;;;;;42.72;22.15;;;;;;;;;;5089028;28;20047;-62
2020/12/05 00:03:57;;;;;;;44.25;23.38;;;;;;;;;;5077014;28;20035;-62
2020/12/05 00:06:23;;;;;;;41.80;21.65;;;;;;;;;;5088327;28;20457;-62
2020/12/05 00:08:53;;;;;;;40.15;21.17;;;;;;;;;;5084679;28;20048;-61
2020/12/05 00:11:26;;;;;;;41.42;21.25;;;;;;;;;;5066342;28;20033;-62
2020/12/05 00:13:52;;;;;;;;;;;;;;;;;;5075890;28;20029;-62
2020/12/05 00:16:18;;;;;;;41.72;21.20;;;;;;;;;;5074776;28;20004;-62
2020/12/05 00:18:44;;;;;;;44.00;24.17;;;;;;;;;;5088931;28;20464;-62
2020/12/05 00:21:10;;;;;;;40.22;21.63;;;;;;;;;;5074441;28;20029;-61
2020/12/05 00:23:36;;;;;;;45.65;23.75;;;;;;;;;;5083625;28;20028;-62
2020/12/05 00:26:01;;;;;;;44.38;22.60;;;;;;;;;;5084540;28;20028;-62
2020/12/05 00:28:27;;;;;;;45.08;24.63;;;;;;;;;;5079158;28;20035;-62
2020/12/05 00:30:53;;;;;;;48.88;26.42;;;;;;;;;;5088867;28;20021;-62
2020/12/05 00:33:19;;;;;;;46.78;24.60;;;;;;;;;;5077807;28;20035;-62
2020/12/05 00:35:45;;;;;;;50.67;25.50;;;;;;;;;;5069677;28;20028;-62
2020/12/05 00:38:11;;;;;;;47.83;24.75;;;;;;;;;;5070910;28;20039;-62
2020/12/05 00:40:37;;;;;;;52.22;25.42;;;;;;;;;;5086094;28;20161;-62
2020/12/05 00:43:03;;;;;;;50.67;26.65;;;;;;;;;;5075285;28;20027;-62
2020/12/05 00:45:29;;;;;;;49.10;26.85;;;;;;;;;;5088807;28;20028;-62
2020/12/05 00:47:55;;;;;;;51.65;26.45;;;;;;;;;;5087915;28;20020;-62
2020/12/05 00:50:21;;;;;;;45.97;25.15;;;;;;;;;;5086373;28;20024;-62
2020/12/05 00:52:47;;;;;;;49.42;26.20;;;;;;;;;;5083570;28;20435;-62
2020/12/05 00:55:13;;;;;;;55.80;27.02;;;;;;;;;;5088771;28;20051;-62
2020/12/05 00:57:39;;;;;;;53.83;27.10;;;;;;;;;;5084418;28;20025;-62
2020/12/05 01:00:06;;;;;;;54.38;25.85;;;;;;;;;;5075576;28;20044;-62
2020/12/05 01:02:32;;;;;;;49.40;24.83;;;;;;;;;;5059031;28;20439;-62
2020/12/05 01:04:58;;;;;;;52.10;27.83;;;;;;;;;;5069419;28;20479;-62
2020/12/05 01:07:25;;;;;;;55.78;28.27;;;;;;;;;;5073982;28;20032;-62
2020/12/05 01:09:51;;;;;;;57.88;28.48;;;;;;;;;;5075351;28;20104;-62
2020/12/05 01:12:17;;;;;;;55.55;28.02;;;;;;;;;;5079903;28;20077;-62
2020/12/05 01:14:43;;;;;;;59.88;27.75;;;;;;;;;;5088539;28;20105;-62
2020/12/05 01:17:09;;;;;;;48.70;26.23;;;;;;;;;;5059366;28;20030;-62
2020/12/05 01:19:35;;;;;;;52.78;27.73;;;;;;;;;;5088458;28;20028;-62
2020/12/05 01:22:01;;;;;;;56.15;26.33;;;;;;;;;;5074167;28;20039;-62
2020/12/05 01:24:27;;;;;;;51.40;27.20;;;;;;;;;;5085750;28;20008;-62
2020/12/05 01:26:53;;;;;;;57.17;26.83;;;;;;;;;;5076927;28;20039;-62
2020/12/05 01:29:19;;;;;;;54.72;27.67;;;;;;;;;;5086540;28;20024;-62
2020/12/05 01:31:48;;;;;;;54.33;27.38;;;;;;;;;;5086782;28;20032;-62
2020/12/05 01:34:15;;;;;;;52.53;26.90;;;;;;;;;;5077095;28;20045;-62
2020/12/05 01:36:45;;;;;;;49.90;25.42;;;;;;;;;;5083953;28;20040;-62
2020/12/05 01:39:11;;;;;;;50.13;24.83;;;;;;;;;;5088635;28;20490;-62
2020/12/05 01:41:37;;;;;;;51.60;26.33;;;;;;;;;;5085431;28;20044;-62
2020/12/05 01:44:03;;;;;;;51.65;27.58;;;;;;;;;;5081524;28;20028;-62
2020/12/05 01:46:33;;;;;;;58.67;26.80;;;;;;;;;;5078027;28;20032;-62
2020/12/05 01:49:00;;;;;;;51.67;28.10;;;;;;;;;;5090488;28;20048;-62
2020/12/05 01:51:26;;;;;;;54.40;26.80;;;;;;;;;;5091946;28;20027;-62
2020/12/05 01:53:52;;;;;;;51.60;25.58;;;;;;;;;;5079840;28;20028;-62
2020/12/05 01:56:18;;;;;;;53.90;25.75;;;;;;;;;;5090956;28;20085;-62
2020/12/05 01:58:44;;;;;;;49.58;26.60;;;;;;;;;;5075372;28;20127;-62
2020/12/05 02:01:10;;;;;;;48.88;25.20;;;;;;;;;;5084233;28;20031;-62
2020/12/05 02:03:36;;;;;;;53.35;27.02;;;;;;;;;;5084345;28;20121;-62
2020/12/05 02:06:07;;;;;;;53.58;26.27;;;;;;;;;;5088377;28;20079;-62
2020/12/05 02:08:41;;;;;;;49.92;25.10;;;;;;;;;;5079089;28;20039;-62
2020/12/05 02:11:11;;;;;;;50.45;26.88;;;;;;;;;;5073787;28;20470;-62
2020/12/05 02:13:38;;;;;;;49.42;25.88;;;;;;;;;;5090737;28;20078;-62
2020/12/05 02:16:05;;;;;;;48.95;25.65;;;;;;;;;;5091416;28;20706;-62
2020/12/05 02:18:32;;;;;;;56.85;26.73;;;;;;;;;;5091261;28;20126;-62
2020/12/05 02:21:00;;;;;;;50.58;25.58;;;;;;;;;;5091709;28;20035;-61
2020/12/05 02:23:27;;;;;;;54.22;25.23;;;;;;;;;;5083492;28;20388;-62
2020/12/05 02:26:06;;;;;;;52.90;25.73;;;;;;;;;;5067357;28;20043;-62
2020/12/05 02:28:33;;;;;;;51.63;26.02;;;;;;;;;;5083167;28;20383;-62
2020/12/05 02:30:59;;;;;;;47.25;24.35;;;;;;;;;;5088469;28;20016;-62
2020/12/05 02:33:25;;;;;;;52.13;26.08;;;;;;;;;;5087980;28;20430;-61
2020/12/05 02:35:51;;;;;;;46.88;25.08;;;;;;;;;;5089074;28;20036;-62
2020/12/05 02:38:23;;;;;;;49.97;24.80;;;;;;;;;;5079297;28;20028;-62
2020/12/05 02:40:50;;;;;;;45.07;24.43;;;;;;;;;;5091277;28;20088;-62
2020/12/05 02:43:16;;;;;;;51.42;25.45;;;;;;;;;;5079906;28;20046;-62
2020/12/05 02:45:42;;;;;;;48.83;25.13;;;;;;;;;;5085344;28;20032;-62
2020/12/05 02:48:09;;;;;;;48.13;24.02;;;;;;;;;;5085610;28;20078;-62
2020/12/05 02:50:35;;;;;;;46.05;23.58;;;;;;;;;;5076787;28;20031;-62
2020/12/05 02:53:01;;;;;;;45.45;24.10;;;;;;;;;;5075670;28;20467;-62
2020/12/05 02:55:27;;;;;;;50.38;24.25;;;;;;;;;;5090204;28;20036;-62
2020/12/05 02:57:53;;;;;;;49.88;24.90;;;;;;;;;;5090020;28;20032;-62
2020/12/05 03:00:19;;;;;;;48.83;24.73;;;;;;;;;;5081546;28;20093;-62
2020/12/05 03:02:44;;;;;;;48.15;24.48;;;;;;;;;;5090666;28;20574;-62
2020/12/05 03:05:10;;;;;;;48.10;23.75;;;;;;;;;;5082147;28;20032;-62
2020/12/05 03:07:36;;;;;;;45.67;23.98;;;;;;;;;;5090670;28;20110;-62
2020/12/05 03:10:03;;;;;;;48.58;23.75;;;;;;;;;;5078434;28;20020;-62
2020/12/05 03:12:29;;;;;;;48.67;25.00;;;;;;;;;;5087607;28;20024;-62
2020/12/05 03:14:55;;;;;;;47.15;24.13;;;;;;;;;;5088180;28;20043;-62
2020/12/05 03:17:21;;;;;;;46.53;23.48;;;;;;;;;;5088264;28;20054;-62
2020/12/05 03:19:47;;;;;;;51.10;24.65;;;;;;;;;;5079019;28;20070;-62
2020/12/05 03:22:12;;;;;;;48.50;24.95;;;;;;;;;;5088771;28;20456;-62
2020/12/05 03:24:38;;;;;;;46.38;24.45;;;;;;;;;;5082002;28;20025;-62
2020/12/05 03:27:04;;;;;;;42.25;22.27;;;;;;;;;;5089419;28;20032;-62
2020/12/05 03:29:31;;;;;;;44.28;23.15;;;;;;;;;;5078046;28;20054;-62
2020/12/05 03:32:09;;;;;;;47.90;23.60;;;;;;;;;;5079545;28;20102;-62
2020/12/05 03:34:35;;;;;;;45.60;23.08;;;;;;;;;;5086744;28;20684;-62
2020/12/05 03:37:01;;;;;;;48.55;22.98;;;;;;;;;;5088782;28;20036;-62
2020/12/05 03:39:27;;;;;;;42.85;23.27;;;;;;;;;;5084548;28;20025;-61
2020/12/05 03:41:53;;;;;;;43.88;23.33;;;;;;;;;;5072513;28;20424;-62
2020/12/05 03:44:19;;;;;;;43.00;22.55;;;;;;;;;;5083967;28;20048;-62
2020/12/05 03:46:45;;;;;;;44.15;23.77;;;;;;;;;;5089830;28;20020;-62
2020/12/05 03:49:10;;;;;;;41.13;21.88;;;;;;;;;;5076614;28;20025;-62
2020/12/05 03:51:36;;;;;;;46.60;23.35;;;;;;;;;;5080594;28;20036;-62
2020/12/05 03:54:02;;;;;;;44.08;23.00;;;;;;;;;;5084053;28;20036;-62
2020/12/05 03:56:28;;;;;;;40.13;21.23;;;;;;;;;;5064067;28;20059;-61
2020/12/05 03:58:54;;;;;;;40.75;21.75;;;;;;;;;;5066117;28;20028;-62
2020/12/05 04:01:22;;;;;;;43.20;22.90;;;;;;;;;;5077311;28;20168;-62
2020/12/05 04:03:48;;;;;;;47.15;22.45;;;;;;;;;;5076303;28;20384;-62
2020/12/05 04:06:14;;;;;;;44.13;22.48;;;;;;;;;;5078695;28;20077;-62
2020/12/05 04:08:42;;;;;;;45.70;21.95;;;;;;;;;;5085625;28;20455;-61
2020/12/05 04:11:08;;;;;;;42.75;22.55;;;;;;;;;;5065826;28;20107;-62
2020/12/05 04:13:35;;;;;;;43.95;22.60;;;;;;;;;;5080008;28;20024;-62
2020/12/05 04:16:01;;;;;;;42.97;22.40;;;;;;;;;;5081566;28;20069;-62
2020/12/05 04:18:27;;;;;;;49.88;24.63;;;;;;;;;;5082517;28;20028;-62
2020/12/05 04:20:53;;;;;;;50.13;24.10;;;;;;;;;;5089044;28;20100;-62
2020/12/05 04:23:19;;;;;;;51.88;25.23;;;;;;;;;;5081352;28;20079;-62
2020/12/05 04:25:45;;;;;;;44.13;23.67;;;;;;;;;;5071377;28;20480;-61
2020/12/05 04:28:11;;;;;;;55.30;26.58;;;;;;;;;;5086831;28;20114;-62
2020/12/05 04:30:37;;;;;;;46.38;23.45;;;;;;;;;;5083473;28;20471;-62
2020/12/05 04:33:03;;;;;;;51.42;25.48;;;;;;;;;;5076300;28;20173;-62
2020/12/05 04:35:29;;;;;;;52.83;25.98;;;;;;;;;;5077013;28;20066;-62
2020/12/05 04:37:55;;;;;;;49.05;24.00;;;;;;;;;;5089324;28;20262;-62
2020/12/05 04:40:21;;;;;;;46.53;23.55;;;;;;;;;;5080855;28;20024;-62
2020/12/05 04:42:48;;;;;;;49.03;24.30;;;;;;;;;;5089025;28;20027;-62
2020/12/05 04:45:14;;;;;;;41.85;22.85;;;;;;;;;;5088730;28;20035;-62
2020/12/05 04:47:41;;;;;;;46.83;22.88;;;;;;;;;;5089235;28;20029;-62
2020/12/05 04:50:08;;;;;;;44.95;22.60;;;;;;;;;;5087491;28;20030;-61
2020/12/05 04:52:46;;;;;;;42.92;22.63;;;;;;;;;;5058154;28;20033;-62
2020/12/05 04:55:12;;;;;;;42.75;21.73;;;;;;;;;;5081506;28;20027;-62
2020/12/05 04:57:39;;;;;;;43.15;23.17;;;;;;;;;;5089037;28;20108;-62
2020/12/05 05:00:07;;;;;;;44.30;22.45;;;;;;;;;;5073988;28;20043;-62
2020/12/05 05:02:35;;;;;;;43.30;21.80;;;;;;;;;;5069521;28;20492;-62
2020/12/05 05:05:01;;;;;;;40.88;21.42;;;;;;;;;;5086433;28;20027;-62
2020/12/05 05:07:28;;;;;;;43.20;21.63;;;;;;;;;;5085738;28;20027;-62
2020/12/05 05:10:02;;;;;;;46.00;22.23;;;;;;;;;;5075994;28;20029;-62
2020/12/05 05:12:33;;;;;;;44.05;20.60;;;;;;;;;;5061524;28;20040;-62
2020/12/05 05:14:59;;;;;;;38.72;21.60;;;;;;;;;;5082779;28;20047;-62
2020/12/05 05:17:25;;;;;;;37.78;20.88;;;;;;;;;;5079589;28;20066;-62
2020/12/05 05:19:51;;;;;;;39.78;20.73;;;;;;;;;;5074211;28;20020;-62
2020/12/05 05:22:21;;;;;;;42.55;21.15;;;;;;;;;;5084439;28;20036;-62
2020/12/05 05:25:03;;;;;;;39.17;21.50;;;;;;;;;;5092350;28;20039;-62
2020/12/05 05:27:29;;;;;;;41.90;21.83;;;;;;;;;;5092724;28;20550;-62
2020/12/05 05:30:05;;;;;;;40.67;20.67;;;;;;;;;;5080310;28;20070;-61
2020/12/05 05:32:31;;;;;;;37.97;20.65;;;;;;;;;;5092579;28;20058;-61
2020/12/05 05:35:12;;;;;;;51.92;27.90;;;;;;;;;;5087445;28;20052;-62
2020/12/05 05:37:39;;;;;;;45.58;22.60;;;;;;;;;;5073699;28;20024;-62
2020/12/05 05:40:06;;;;;;;42.38;23.13;;;;;;;;;;5079075;28;20111;-61
2020/12/05 05:42:33;;;;;;;48.08;22.63;;;;;;;;;;5092005;28;20020;-61
2020/12/05 05:45:18;;;;;;;88.25;48.45;;;;;;;;;;5081355;28;20022;-62
2020/12/05 05:47:45;;;;;;;59.00;29.77;;;;;;;;;;5092194;28;20042;-62
2020/12/05 05:50:24;;;;;;;45.80;23.85;;;;;;;;;;5091290;28;20024;-61
2020/12/05 05:52:53;;;;;;;47.33;24.95;;;;;;;;;;5079669;28;20078;-62
2020/12/05 05:55:19;;;;;;;63.00;33.42;;;;;;;;;;5072391;28;20378;-62
2020/12/05 05:57:46;;;;;;;44.40;21.88;;;;;;;;;;5090355;28;20043;-62
2020/12/05 06:00:12;;;;;;;36.28;19.73;;;;;;;;;;5075919;28;20044;-62
2020/12/05 06:02:40;;;;;;;45.50;22.90;;;;;;;;;;5085834;28;20032;-62
2020/12/05 06:05:08;;;;;;;49.10;24.80;;;;;;;;;;5083303;28;20020;-62
2020/12/05 06:07:37;;;;;;;41.95;22.05;;;;;;;;;;5077904;28;20486;-61
2020/12/05 06:10:04;;;;;;;40.17;21.00;;;;;;;;;;5087581;28;20031;-62
2020/12/05 06:12:34;;;;;;;40.63;21.40;;;;;;;;;;5089698;28;20036;-62
2020/12/05 06:15:00;;;;;;;42.53;20.88;;;;;;;;;;5090855;28;20027;-61
2020/12/05 06:17:26;;;;;;;38.13;19.27;;;;;;;;;;5073517;28;20024;-62
2020/12/05 06:19:53;;;;;;;39.85;19.25;;;;;;;;;;5091222;28;20435;-62
2020/12/05 06:22:24;;;;;;;36.30;19.35;;;;;;;;;;5080984;28;20028;-62
2020/12/05 06:25:08;;;;;;;37.05;20.00;;;;;;;;;;5074483;28;20028;-62
2020/12/05 06:27:36;;;;;;;34.03;17.98;;;;;;;;;;5061365;28;20093;-62
2020/12/05 06:30:06;;;;;;;33.58;18.73;;;;;;;;;;5076560;28;20084;-62
2020/12/05 06:32:42;;;;;;;36.58;20.38;;;;;;;;;;5087585;28;20036;-62
2020/12/05 06:35:23;;;;;;;35.22;18.58;;;;;;;;;;5087966;28;20028;-62
2020/12/05 06:37:51;;;;;;;34.45;17.90;;;;;;;;;;5078216;28;20039;-62
2020/12/05 06:40:17;;;;;;;34.70;18.13;;;;;;;;;;5086663;28;20038;-62
2020/12/05 06:42:45;;;;;;;33.67;17.10;;;;;;;;;;5072927;28;20036;-61
2020/12/05 06:45:26;;;;;;;36.78;18.05;;;;;;;;;;5085723;28;20047;-61
2020/12/05 06:47:52;;;;;;;38.85;19.65;;;;;;;;;;5076162;28;20032;-62
2020/12/05 06:50:34;;;;;;;39.25;20.38;;;;;;;;;;5091019;28;20024;-62
2020/12/05 06:53:01;;;;;;;34.70;19.05;;;;;;;;;;5075405;28;20020;-62
2020/12/05 06:55:34;;;;;;;39.55;20.13;;;;;;;;;;5080935;28;20094;-62
2020/12/05 06:58:01;;;;;;;35.22;19.98;;;;;;;;;;5061861;28;20032;-62
2020/12/05 07:00:27;;;;;;;35.75;18.77;;;;;;;;;;5080101;28;20028;-62
2020/12/05 07:03:00;;;;;;;38.78;19.90;;;;;;;;;;5088175;28;20040;-62
2020/12/05 07:05:27;;;;;;;38.47;18.92;;;;;;;;;;5085205;28;20055;-61
2020/12/05 07:07:55;;;;;;;37.47;19.15;;;;;;;;;;5078015;28;20021;-62
2020/12/05 07:10:22;;;;;;;33.28;18.52;;;;;;;;;;5067503;28;20035;-62
2020/12/05 07:12:49;;;;;;;38.00;19.05;;;;;;;;;;5072594;28;20027;-61
2020/12/05 07:15:21;;;;;;;36.80;20.23;;;;;;;;;;5070599;28;20107;-61
2020/12/05 07:17:47;;;;;;;31.08;17.33;;;;;;;;;;5079424;28;20028;-61
2020/12/05 07:20:13;;;;;;;33.25;19.25;;;;;;;;;;5080385;28;20498;-61
2020/12/05 07:22:39;;;;;;;37.40;19.38;;;;;;;;;;5086388;28;20032;-61
2020/12/05 07:25:05;;;;;;;31.40;18.33;;;;;;;;;;5075415;28;20028;-61
2020/12/05 07:27:31;;;;;;;43.55;25.00;;;;;;;;;;5089820;28;20024;-62
2020/12/05 07:29:57;;;;;;;32.88;18.00;;;;;;;;;;5086276;28;20034;-62
2020/12/05 07:32:23;;;;;;;31.50;17.77;;;;;;;;;;5085241;28;20032;-62
2020/12/05 07:34:49;;;;;;;32.97;18.00;;;;;;;;;;5091288;28;20046;-62
2020/12/05 07:37:27;;;;;;;31.90;17.52;;;;;;;;;;5080497;28;20105;-62
2020/12/05 07:39:54;;;;;;;32.67;16.27;;;;;;;;;;5080652;28;20063;-62
2020/12/05 07:42:20;;;;;;;29.40;16.20;;;;;;;;;;5088535;28;20089;-61
2020/12/05 07:44:47;;;;;;;31.58;16.17;;;;;;;;;;5066545;28;20037;-62
2020/12/05 07:47:19;;;;;;;34.35;18.40;;;;;;;;;;5074596;28;20027;-62
2020/12/05 07:49:52;;;;;;;27.38;15.73;;;;;;;;;;5081510;28;20711;-61
2020/12/05 07:52:19;;;;;;;24.92;12.65;;;;;;;;;;5077111;28;20036;-62
2020/12/05 07:54:55;;;;;;;29.67;16.88;;;;;;;;;;5080781;28;20034;-61
2020/12/05 07:57:21;;;;;;;29.38;15.88;;;;;;;;;;5085359;28;20111;-61
2020/12/05 07:59:47;;;;;;;27.88;15.90;;;;;;;;;;5079914;28;20100;-61
2020/12/05 08:02:17;;;;;;;31.40;19.42;;;;;;;;;;5077072;28;20028;-61
2020/12/05 08:04:48;;;;;;;28.52;16.40;;;;;;;;;;5067751;28;20484;-61
2020/12/05 08:07:15;;;;;;;32.13;19.27;;;;;;;;;;5072460;28;20067;-61
2020/12/05 08:09:41;;;;;;;27.13;15.50;;;;;;;;;;5078249;28;20025;-62
2020/12/05 08:12:20;;;;;;;41.08;23.90;;;;;;;;;;5081186;28;20074;-62
2020/12/05 08:14:47;;;;;;;32.92;17.40;;;;;;;;;;5074508;28;20545;-61
2020/12/05 08:17:13;;;;;;;29.48;17.52;;;;;;;;;;5064568;28;20028;-62
2020/12/05 08:19:42;;;;;;;32.85;17.52;;;;;;;;;;5069976;28;20028;-61
2020/12/05 08:22:08;;;;;;;29.17;15.70;;;;;;;;;;5087659;28;20024;-61
2020/12/05 08:24:38;;;;;;;30.10;17.63;;;;;;;;;;5088297;28;20061;-61
2020/12/05 08:27:04;;;;;;;26.67;15.50;;;;;;;;;;5089060;28;20028;-61
2020/12/05 08:29:30;;;;;;;28.90;16.35;;;;;;;;;;5083650;28;20016;-61
2020/12/05 08:31:56;;;;;;;28.42;14.95;;;;;;;;;;5072237;28;20032;-61
2020/12/05 08:34:29;;;;;;;28.88;15.57;;;;;;;;;;5069336;28;20035;-61
2020/12/05 08:36:56;;;;;;;31.55;17.10;;;;;;;;;;5072526;28;20817;-62
2020/12/05 08:39:22;;;;;;;26.38;14.88;;;;;;;;;;5077161;28;20038;-62
2020/12/05 08:41:51;;;;;;;31.40;15.05;;;;;;;;;;5071522;28;20021;-62
2020/12/05 08:44:18;;;;;;;28.30;15.68;;;;;;;;;;5066534;28;20037;-62
2020/12/05 08:46:44;;;;;;;27.05;14.90;;;;;;;;;;5066472;28;20032;-62
2020/12/05 08:49:14;;;;;;;32.75;18.25;;;;;;;;;;5066904;28;20029;-62
2020/12/05 08:51:40;;;;;;;33.20;16.00;;;;;;;;;;5068133;28;20032;-62
2020/12/05 08:54:07;;;;;;;26.13;15.25;;;;;;;;;;5074708;28;20040;-62
2020/12/05 08:56:33;;;;;;;31.65;16.77;;;;;;;;;;5066125;28;20549;-62
2020/12/05 08:58:59;;;;;;;29.15;16.65;;;;;;;;;;5065670;28;20033;-62
2020/12/05 09:01:35;;;;;;;28.08;16.92;;;;;;;;;;5069947;28;20144;-62
2020/12/05 09:04:01;;;;;;;30.90;17.30;;;;;;;;;;5072796;28;20111;-62
2020/12/05 09:06:27;;;;;;;28.98;16.33;;;;;;;;;;5075319;28;20031;-62
2020/12/05 09:08:53;;;;;;;26.58;15.38;;;;;;;;;;5069572;28;20032;-62
2020/12/05 09:11:20;;;;;;;30.63;19.73;;;;;;;;;;5073735;28;20036;-62
2020/12/05 09:13:46;;;;;;;26.08;16.25;;;;;;;;;;5072637;28;20021;-62
2020/12/05 09:16:11;;;;;;;28.83;15.75;;;;;;;;;;5079053;28;20036;-62
2020/12/05 09:18:42;;;;;;;37.55;17.83;;;;;;;;;;5073926;28;20032;-62
2020/12/05 09:21:26;;;;;;;32.00;17.60;;;;;;;;;;5077731;28;20352;-62
2020/12/05 09:23:59;;;;;;;30.48;17.60;;;;;;;;;;5080331;28;20046;-62
2020/12/05 09:26:25;;;;;;;36.85;18.33;;;;;;;;;;5079069;28;20036;-62
2020/12/05 09:28:51;;;;;;;29.50;16.40;;;;;;;;;;5081888;28;20119;-62
2020/12/05 09:31:17;;;;;;;29.38;15.95;;;;;;;;;;5079233;28;20020;-62
2020/12/05 09:33:44;;;;;;;29.00;16.33;;;;;;;;;;5077599;28;20666;-62
2020/12/05 09:36:10;;;;;;;28.88;15.63;;;;;;;;;;5075154;28;20163;-62
2020/12/05 09:38:36;;;;;;;24.20;14.85;;;;;;;;;;5062509;28;20035;-62
2020/12/05 09:41:02;;;;;;;27.80;14.75;;;;;;;;;;5068461;28;20448;-62
2020/12/05 09:43:28;;;;;;;24.77;14.68;;;;;;;;;;5073202;28;20053;-63
2020/12/05 09:45:54;;;;;;;27.13;15.07;;;;;;;;;;5077307;28;20052;-62
2020/12/05 09:48:20;;;;;;;25.35;15.32;;;;;;;;;;5068719;28;20028;-62
2020/12/05 09:50:46;;;;;;;28.58;13.90;;;;;;;;;;5074699;28;20035;-62
2020/12/05 09:53:12;;;;;;;28.45;14.68;;;;;;;;;;5065924;28;20039;-62
2020/12/05 09:55:38;;;;;;;28.60;13.38;;;;;;;;;;5088071;28;20036;-62
2020/12/05 09:58:04;;;;;;;25.27;13.98;;;;;;;;;;5078448;28;20433;-62
2020/12/05 10:00:30;;;;;;;23.75;13.13;;;;;;;;;;5070024;28;20514;-62
2020/12/05 10:02:57;;;;;;;22.10;12.48;;;;;;;;;;5084828;28;20059;-63
2020/12/05 10:05:23;;;;;;;19.13;11.48;;;;;;;;;;5084200;28;20508;-63
2020/12/05 10:07:49;;;;;;;19.77;10.55;;;;;;;;;;5086330;28;20028;-63
2020/12/05 10:10:15;;;;;;;26.15;11.23;;;;;;;;;;5085480;28;20032;-62
2020/12/05 10:12:44;;;;;;;23.27;12.20;;;;;;;;;;5081489;28;20062;-62
2020/12/05 10:15:10;;;;;;;19.70;10.95;;;;;;;;;;5077418;28;20028;-62
2020/12/05 10:17:36;;;;;;;22.20;11.48;;;;;;;;;;5070486;28;20036;-62
2020/12/05 10:20:03;;;;;;;20.98;11.45;;;;;;;;;;5086268;28;20027;-62
2020/12/05 10:22:29;;;;;;;18.75;11.05;;;;;;;;;;5077259;28;20036;-62
2020/12/05 10:24:55;;;;;;;20.95;11.43;;;;;;;;;;5086336;28;20584;-62
2020/12/05 10:27:21;;;;;;;19.48;10.73;;;;;;;;;;5091318;28;20028;-62
2020/12/05 10:29:47;;;;;;;19.27;10.57;;;;;;;;;;5089336;28;20039;-63
2020/12/05 10:32:13;;;;;;;21.45;10.23;;;;;;;;;;5086751;28;20012;-63
2020/12/05 10:34:39;;;;;;;19.27;10.77;;;;;;;;;;5062446;28;20345;-63
2020/12/05 10:37:05;;;;;;;19.90;11.25;;;;;;;;;;5071755;28;20032;-62
2020/12/05 10:39:31;;;;;;;19.63;10.68;;;;;;;;;;5071445;28;20078;-63
2020/12/05 10:41:57;;;;;;;18.92;10.13;;;;;;;;;;5066633;28;20113;-62
2020/12/05 10:44:23;;;;;;;17.73;10.38;;;;;;;;;;5081380;28;20025;-63
2020/12/05 10:46:50;;;;;;;21.23;12.35;;;;;;;;;;5081541;28;20359;-62
2020/12/05 10:49:16;;;;;;;22.58;10.70;;;;;;;;;;5064318;28;20035;-62
2020/12/05 10:51:42;;;;;;;20.17;11.05;;;;;;;;;;5074862;28;20034;-62
2020/12/05 10:54:08;;;;;;;20.92;11.27;;;;;;;;;;5074558;28;20028;-62
2020/12/05 10:56:35;;;;;;;20.55;10.25;;;;;;;;;;5071410;28;20024;-62
2020/12/05 10:59:01;;;;;;;21.10;11.52;;;;;;;;;;5074845;28;20395;-62
2020/12/05 11:01:27;;;;;;;20.98;10.95;;;;;;;;;;5070883;28;20025;-62
2020/12/05 11:03:53;;;;;;;21.67;11.40;;;;;;;;;;5073142;28;20033;-62
2020/12/05 11:06:19;;;;;;;22.40;11.65;;;;;;;;;;5075848;28;20062;-62
2020/12/05 11:08:46;;;;;;;18.42;9.98;;;;;;;;;;5072770;28;20039;-62
2020/12/05 11:11:11;;;;;;;22.42;11.95;;;;;;;;;;5076437;28;20070;-63
2020/12/05 11:13:37;;;;;;;24.30;12.38;;;;;;;;;;5081983;28;20422;-62
2020/12/05 11:16:03;;;;;;;22.00;11.38;;;;;;;;;;5070329;28;20556;-62
2020/12/05 11:18:29;;;;;;;25.35;11.25;;;;;;;;;;5073261;28;20036;-62
2020/12/05 11:20:55;;;;;;;22.77;12.05;;;;;;;;;;5088567;28;20028;-62
2020/12/05 11:23:21;;;;;;;25.20;11.95;;;;;;;;;;5085902;28;20028;-62
2020/12/05 11:25:47;;;;;;;20.02;11.38;;;;;;;;;;5069307;28;20040;-62
2020/12/05 11:28:13;;;;;;;21.52;12.25;;;;;;;;;;5085097;28;20016;-62
2020/12/05 11:30:39;;;;;;;21.42;12.00;;;;;;;;;;5084819;28;20020;-62
2020/12/05 11:33:05;;;;;;;21.90;11.85;;;;;;;;;;5089595;28;20020;-63
2020/12/05 11:35:31;;;;;;;21.35;11.73;;;;;;;;;;5077030;28;20032;-63
2020/12/05 11:37:57;;;;;;;23.48;12.88;;;;;;;;;;5067692;28;20037;-63
2020/12/05 11:40:23;;;;;;;20.85;11.90;;;;;;;;;;5060127;28;20024;-63
2020/12/05 11:42:49;;;;;;;24.73;12.73;;;;;;;;;;5086390;28;20379;-63
2020/12/05 11:45:15;;;;;;;23.48;12.90;;;;;;;;;;5087849;28;20028;-63
2020/12/05 11:47:41;;;;;;;25.38;12.30;;;;;;;;;;5075669;28;20087;-63
2020/12/05 11:50:07;;;;;;;24.50;13.35;;;;;;;;;;5059733;28;20040;-63
2020/12/05 11:52:33;;;;;;;22.75;12.10;;;;;;;;;;5085229;28;20024;-68
2020/12/05 11:54:59;;;;;;;24.27;13.05;;;;;;;;;;5069683;28;20021;-63
2020/12/05 11:57:25;;;;;;;23.77;12.90;;;;;;;;;;5074195;28;20031;-63
2020/12/05 11:59:51;;;;;;;24.15;12.82;;;;;;;;;;5070043;28;20028;-63
2020/12/05 12:02:17;;;;;;;23.65;12.45;;;;;;;;;;5085981;28;20044;-63
2020/12/05 12:04:43;;;;;;;19.92;12.05;;;;;;;;;;5071164;28;20620;-63
2020/12/05 12:07:09;;;;;;;20.85;11.20;;;;;;;;;;5060662;28;20484;-63
2020/12/05 12:09:35;;;;;;;28.65;13.18;;;;;;;;;;5062833;28;20391;-63
2020/12/05 12:12:01;;;;;;;24.17;13.00;;;;;;;;;;5083656;28;20024;-63
2020/12/05 12:14:27;;;;;;;25.52;12.90;;;;;;;;;;5071522;28;20566;-63
2020/12/05 12:16:53;;;;;;;23.33;12.48;;;;;;;;;;5079967;28;20028;-62
2020/12/05 12:19:19;;;;;;;23.65;12.50;;;;;;;;;;5079155;28;20126;-63
2020/12/05 12:21:45;;;;;;;26.02;12.50;;;;;;;;;;5081074;28;20040;-63
2020/12/05 12:24:11;;;;;;;29.20;14.20;;;;;;;;;;5087507;28;20024;-62
2020/12/05 12:26:37;;;;;;;25.75;14.77;;;;;;;;;;5084846;28;20019;-63
2020/12/05 12:29:03;;;;;;;25.85;14.68;;;;;;;;;;5072774;28;20028;-63
2020/12/05 12:31:29;;;;;;;24.70;13.60;;;;;;;;;;5066714;28;20105;-63
2020/12/05 12:33:55;;;;;;;25.35;14.38;;;;;;;;;;5089030;28;20054;-63
2020/12/05 12:36:22;;;;;;;24.92;13.00;;;;;;;;;;5079793;28;20489;-63
2020/12/05 12:38:48;;;;;;;28.83;15.70;;;;;;;;;;5072946;28;20031;-63
2020/12/05 12:41:17;;;;;;;26.50;14.32;;;;;;;;;;5067854;28;20044;-63
2020/12/05 12:43:44;;;;;;;25.33;14.57;;;;;;;;;;5078871;28;20111;-63
2020/12/05 12:46:10;;;;;;;25.90;14.15;;;;;;;;;;5088709;28;20494;-63
2020/12/05 12:48:38;;;;;;;26.10;15.02;;;;;;;;;;5071944;28;20025;-63
2020/12/05 12:51:03;;;;;;;28.17;15.38;;;;;;;;;;5076844;28;20032;-63
2020/12/05 12:53:29;;;;;;;26.67;14.55;;;;;;;;;;5078911;28;20020;-61
2020/12/05 12:55:55;;;;;;;25.45;13.43;;;;;;;;;;5087438;28;20031;-60
2020/12/05 12:58:29;;;;;;;25.95;15.25;;;;;;;;;;5084577;28;20106;-61
2020/12/05 13:00:55;;;;;;;23.88;12.82;;;;;;;;;;5072353;28;20383;-61
2020/12/05 13:03:22;;;;;;;26.20;13.93;;;;;;;;;;5068291;28;20033;-61
2020/12/05 13:05:48;;;;;;;28.02;14.25;;;;;;;;;;5071167;28;20035;-61
2020/12/05 13:08:14;;;;;;;32.17;16.50;;;;;;;;;;5069842;28;20029;-62
2020/12/05 13:10:40;;;;;;;27.25;13.93;;;;;;;;;;5072181;28;20032;-60
2020/12/05 13:13:06;;;;;;;30.25;14.73;;;;;;;;;;5079216;28;20027;-61
2020/12/05 13:15:32;;;;;;;26.05;13.02;;;;;;;;;;5087520;28;20031;-61
2020/12/05 13:17:58;;;;;;;23.33;13.15;;;;;;;;;;5087888;28;20068;-60
2020/12/05 13:20:24;;;;;;;27.38;13.13;;;;;;;;;;5088910;28;20037;-61
2020/12/05 13:22:51;;;;;;;28.02;14.43;;;;;;;;;;5078473;28;20059;-61
2020/12/05 13:25:17;;;;;;;27.33;14.73;;;;;;;;;;5085521;28;20096;-61
2020/12/05 13:27:44;;;;;;;29.30;15.73;;;;;;;;;;5087792;28;20543;-61
2020/12/05 13:30:10;;;;;;;30.48;14.20;;;;;;;;;;5070377;28;20714;-61
2020/12/05 13:32:36;;;;;;;26.60;14.32;;;;;;;;;;5060227;28;20029;-61
2020/12/05 13:35:02;;;;;;;28.08;14.90;;;;;;;;;;5086189;28;20016;-61
2020/12/05 13:37:28;;;;;;;28.52;15.25;;;;;;;;;;5063292;28;20032;-61
2020/12/05 13:39:54;;;;;;;30.85;16.92;;;;;;;;;;5089813;28;20032;-61
2020/12/05 13:42:20;;;;;;;41.85;23.35;;;;;;;;;;5085172;28;20029;-61
2020/12/05 13:44:46;;;;;;;38.15;18.17;;;;;;;;;;5077444;28;20057;-61
2020/12/05 13:47:12;;;;;;;62.85;29.88;;;;;;;;;;5078200;28;20112;-61
2020/12/05 13:49:38;;;;;;;202.38;118.28;;;;;;;;;;5073017;28;20016;-61
2020/12/05 13:52:07;;;;;;;52.25;29.48;;;;;;;;;;5071720;28;20028;-61
2020/12/05 13:54:34;;;;;;;26.67;16.00;;;;;;;;;;5071227;28;20380;-60
2020/12/05 13:57:00;;;;;;;27.17;14.82;;;;;;;;;;5083540;28;20651;-61
2020/12/05 13:59:26;;;;;;;24.17;14.43;;;;;;;;;;5081966;28;20027;-60
2020/12/05 14:01:52;;;;;;;27.85;14.45;;;;;;;;;;5072653;28;20655;-61
2020/12/05 14:04:18;;;;;;;26.48;14.30;;;;;;;;;;5074743;28;20090;-60
2020/12/05 14:06:47;;;;;;;27.75;15.02;;;;;;;;;;5085072;28;20036;-61
2020/12/05 14:09:13;;;;;;;27.00;14.43;;;;;;;;;;5071283;28;20081;-60
2020/12/05 14:11:39;;;;;;;25.40;13.73;;;;;;;;;;5074036;28;20091;-61
2020/12/05 14:14:05;;;;;;;27.65;14.57;;;;;;;;;;5075330;28;21343;-60
2020/12/05 14:16:31;;;;;;;28.38;14.48;;;;;;;;;;5070043;28;20502;-60